PST,Max TemperatureF,Mean TemperatureF,Min TemperatureF,Max Dew PointF,MeanDew PointF,Min DewpointF,Max Humidity, Mean Humidity, Min Humidity, Max Sea Level PressureIn, Mean Sea Level PressureIn, Min Sea Level PressureIn, Max VisibilityMiles, Mean VisibilityMiles, Min VisibilityMiles, Max Wind SpeedMPH, Mean Wind SpeedMPH, Max Gust SpeedMPH,PrecipitationIn, CloudCover, Events, WindDirDegrees
2013-2-1,56,48,39,45,41,36,89,75,61,30.37,30.33,30.27,10,10,7,16,4,26,T,5,,347
2013-2-2,52,41,30,41,34,28,92,78,63,30.33,30.30,30.28,10,5,0,8,3,,0.00,0,Fog,299
2013-2-3,47,41,35,43,39,34,100,91,82,30.36,30.30,30.25,8,4,0,6,1,7,0.00,8,Fog,9
2013-2-4,51,46,41,43,41,39,96,84,71,30.26,30.14,29.96,10,5,0,17,2,,0.00,6,Fog,308
2013-2-5,52,46,40,44,41,38,89,80,71,30.06,29.98,29.93,10,10,5,18,8,24,0.15,6,Rain,183
2013-2-6,51,46,40,41,39,37,89,78,66,30.11,30.02,29.86,10,10,7,20,8,26,0.11,7,Rain,180
2013-2-7,48,41,33,38,36,33,100,83,66,30.17,30.04,29.97,10,9,2,12,4,16,0.08,6,Rain,114
2013-2-8,46,38,30,38,32,26,100,83,65,30.30,30.25,30.18,10,4,0,7,1,18,0.00,4,Fog,135
2013-2-9,46,41,35,41,39,33,96,86,76,30.32,30.30,30.28,10,4,2,8,1,18,0.04,8,Rain,152
2013-2-10,49,44,39,41,39,35,93,79,65,30.37,30.34,30.32,10,5,0,13,3,16,0.00,8,Fog-Rain,5
2013-2-11,49,45,40,41,38,35,89,78,66,30.40,30.38,30.35,10,10,10,10,5,15,T,8,Rain,193
2013-2-12,55,50,44,45,43,40,92,82,71,30.48,30.45,30.41,10,10,8,12,7,17,0.00,8,,215
2013-2-13,54,50,45,45,42,37,93,76,59,30.53,30.47,30.44,10,10,7,16,7,22,T,8,,219
2013-2-14,57,47,36,44,40,35,100,81,61,30.57,30.54,30.51,10,10,10,8,2,23,0.00,6,,354
2013-2-15,63,51,38,45,41,37,89,69,48,30.50,30.34,30.21,10,9,2,13,4,17,0.00,3,,346
2013-2-16,55,46,36,45,40,33,96,75,54,30.31,30.26,30.23,10,4,0,17,6,22,0.01,6,Fog-Rain,243
2013-2-17,48,40,32,36,32,30,92,71,50,30.32,30.25,30.12,10,10,10,8,3,10,0.00,4,,238
2013-2-18,47,40,33,37,35,31,96,78,60,30.09,29.94,29.75,10,10,8,28,5,28,0.05,6,Rain,169
2013-2-19,54,45,36,38,36,34,92,71,50,30.02,29.80,29.70,10,10,10,10,5,11,T,5,,339
2013-2-20,48,40,32,39,35,30,92,79,66,30.11,30.07,30.03,10,10,9,14,4,18,0.04,6,Rain,222
2013-2-21,46,42,37,40,37,34,86,79,71,30.21,30.18,30.13,10,10,6,20,10,24,0.11,7,Rain,204
2013-2-22,50,44,37,45,39,32,89,83,76,30.18,30.05,29.92,10,9,2,23,13,30,0.61,7,Rain,201
2013-2-23,49,41,33,38,34,30,92,75,58,30.46,30.31,30.12,10,10,4,17,8,25,0.10,5,Rain,240
2013-2-24,53,45,36,37,34,31,92,68,44,30.46,30.31,30.08,10,10,9,16,6,21,0.00,6,,177
2013-2-25,51,43,35,39,36,32,86,69,52,30.41,30.24,30.05,10,9,4,22,11,31,0.32,5,Rain,237
2013-2-26,50,41,31,37,34,29,96,79,61,30.41,30.36,30.26,10,5,0,10,3,30,0.00,6,Fog,311
2013-2-27,52,46,40,45,40,36,93,78,63,30.32,30.29,30.24,10,9,4,13,2,17,0.03,8,Rain,184
2013-2-28,57,52,47,51,48,45,89,83,77,30.45,30.32,30.21,10,10,6,20,9,23,0.03,8,Rain,194